createdAt,value
2018-03-16T00:01:26.925Z,5.96
2018-03-16T00:03:54.388Z,6.00
2018-03-16T00:06:21.833Z,6.06
2018-03-16T00:08:49.270Z,6.04
2018-03-16T00:11:16.753Z,6.04
2018-03-16T00:13:44.224Z,5.99
2018-03-16T00:16:11.670Z,6.04
2018-03-16T00:18:39.178Z,6.03
2018-03-16T00:21:06.687Z,6.07
2018-03-16T00:23:34.200Z,6.06
2018-03-16T00:26:01.699Z,6.05
2018-03-16T00:28:29.181Z,6.03
2018-03-16T00:30:56.665Z,6.03
2018-03-16T00:33:24.147Z,6.04
2018-03-16T00:35:51.651Z,6.06
2018-03-16T00:38:19.087Z,6.11
2018-03-16T00:40:46.554Z,6.10
2018-03-16T00:43:13.995Z,6.07
2018-03-16T00:45:41.507Z,6.10
2018-03-16T00:48:08.966Z,6.09
2018-03-16T00:50:36.409Z,6.12
2018-03-16T00:53:03.907Z,6.12
2018-03-16T00:55:31.413Z,6.13
2018-03-16T00:57:58.881Z,6.09
2018-03-16T01:00:26.411Z,6.10
2018-03-16T01:02:53.843Z,6.09
2018-03-16T01:05:21.339Z,6.11
2018-03-16T01:07:48.805Z,6.12
2018-03-16T01:10:16.472Z,6.14
2018-03-16T01:12:44.233Z,6.13
2018-03-16T01:15:11.697Z,6.09
2018-03-16T01:17:39.180Z,6.05
2018-03-16T01:20:06.628Z,6.09
2018-03-16T01:22:34.077Z,6.12
2018-03-16T01:25:01.532Z,6.15
2018-03-16T01:27:28.990Z,6.16
2018-03-16T01:29:56.439Z,6.11
2018-03-16T01:32:23.927Z,6.14
2018-03-16T01:34:51.399Z,6.11
2018-03-16T01:37:18.899Z,6.11
2018-03-16T01:39:46.372Z,6.12
2018-03-16T01:42:13.836Z,6.12
2018-03-16T01:44:41.260Z,6.08
2018-03-16T01:47:08.723Z,6.04
2018-03-16T01:49:36.182Z,6.04
2018-03-16T01:52:03.671Z,6.04
2018-03-16T01:54:31.162Z,6.10
2018-03-16T01:56:58.634Z,6.05
2018-03-16T01:59:26.080Z,6.06
2018-03-16T02:01:53.625Z,6.07
2018-03-16T02:04:21.058Z,6.11
2018-03-16T02:06:48.561Z,6.11
2018-03-16T02:09:16.074Z,6.11
2018-03-16T02:11:43.545Z,6.14
2018-03-16T02:14:11.003Z,6.15
2018-03-16T02:16:38.476Z,6.13
2018-03-16T02:19:05.961Z,6.17
2018-03-16T02:21:33.469Z,6.16
2018-03-16T02:24:00.943Z,6.11
2018-03-16T02:26:28.421Z,6.11
2018-03-16T02:28:55.898Z,6.11
2018-03-16T02:31:23.363Z,6.08
2018-03-16T02:33:50.867Z,6.12
2018-03-16T02:36:18.384Z,6.11
2018-03-16T02:38:45.906Z,6.08
2018-03-16T02:41:13.367Z,6.06
2018-03-16T02:43:40.847Z,6.09
2018-03-16T02:46:08.300Z,6.09
2018-03-16T02:48:35.776Z,6.09
2018-03-16T02:51:03.241Z,6.15
2018-03-16T02:53:30.745Z,6.16
2018-03-16T02:55:58.207Z,6.14
2018-03-16T02:58:25.651Z,6.11
2018-03-16T03:00:53.159Z,6.04
2018-03-16T03:03:20.604Z,6.08
2018-03-16T03:05:48.119Z,6.10
2018-03-16T03:08:15.579Z,6.09
2018-03-16T03:10:43.017Z,6.11
2018-03-16T03:13:10.493Z,6.06
2018-03-16T03:15:37.955Z,6.07
2018-03-16T03:18:05.412Z,6.09
2018-03-16T03:20:32.867Z,6.06
2018-03-16T03:23:00.347Z,6.03
2018-03-16T03:25:27.837Z,6.05
2018-03-16T03:27:55.295Z,6.10
2018-03-16T03:30:22.803Z,6.06
2018-03-16T03:32:50.272Z,6.02
2018-03-16T03:35:17.714Z,6.04
2018-03-16T03:37:45.269Z,6.06
2018-03-16T03:40:12.712Z,5.99
2018-03-16T03:42:40.175Z,6.01
2018-03-16T03:45:07.653Z,6.00
2018-03-16T03:47:35.100Z,5.99
2018-03-16T03:50:02.549Z,6.03
2018-03-16T03:52:29.993Z,5.99
2018-03-16T03:54:57.448Z,5.93
2018-03-16T03:57:24.901Z,5.97
2018-03-16T03:59:52.350Z,5.98
2018-03-16T04:02:19.796Z,6.01
2018-03-16T04:04:47.248Z,5.99
2018-03-16T04:07:14.736Z,5.99
2018-03-16T04:09:42.177Z,5.95
2018-03-16T04:12:09.725Z,5.92
2018-03-16T04:14:37.222Z,5.88
2018-03-16T04:17:04.680Z,5.84
2018-03-16T04:19:32.168Z,5.83
2018-03-16T04:21:59.607Z,5.85
2018-03-16T04:24:27.054Z,5.88
2018-03-16T04:26:54.530Z,5.87
2018-03-16T04:29:21.984Z,5.85
2018-03-16T04:31:49.456Z,5.85
2018-03-16T04:34:17.563Z,5.85
2018-03-16T04:36:45.008Z,5.87
2018-03-16T04:39:12.452Z,5.85
2018-03-16T04:41:40.123Z,5.87
2018-03-16T04:44:07.670Z,5.86
2018-03-16T04:46:35.125Z,5.85
2018-03-16T04:49:02.593Z,5.85
2018-03-16T04:51:30.077Z,5.79
2018-03-16T04:53:57.560Z,5.72
2018-03-16T04:56:25.103Z,5.71
2018-03-16T04:58:52.548Z,5.76
2018-03-16T05:01:20.032Z,5.79
2018-03-16T05:03:47.490Z,5.77
2018-03-16T05:06:14.926Z,5.75
2018-03-16T05:08:42.441Z,5.69
2018-03-16T05:11:09.886Z,5.69
2018-03-16T05:13:37.400Z,5.69
2018-03-16T05:16:04.900Z,5.69
2018-03-16T05:18:32.378Z,5.62
2018-03-16T05:20:59.856Z,5.61
2018-03-16T05:23:27.304Z,5.58
2018-03-16T05:25:54.772Z,5.57
2018-03-16T05:28:22.216Z,5.60
2018-03-16T05:30:49.674Z,5.62
2018-03-16T05:33:17.146Z,5.62
2018-03-16T05:35:44.608Z,5.61
2018-03-16T05:38:12.331Z,5.62
2018-03-16T05:40:39.775Z,5.62
2018-03-16T05:43:07.246Z,5.56
2018-03-16T05:45:34.758Z,5.64
2018-03-16T05:48:02.232Z,5.64
2018-03-16T05:50:29.684Z,5.62
2018-03-16T05:52:57.214Z,5.54
2018-03-16T05:55:24.686Z,5.53
2018-03-16T05:57:52.139Z,5.52
2018-03-16T06:00:19.618Z,5.48
2018-03-16T06:02:47.069Z,5.50
2018-03-16T06:05:14.522Z,5.54
2018-03-16T06:07:41.994Z,5.54
2018-03-16T06:10:09.418Z,5.54
2018-03-16T06:12:36.863Z,5.53
2018-03-16T06:15:04.349Z,5.49
2018-03-16T06:17:31.834Z,5.46
2018-03-16T06:19:59.318Z,5.49
2018-03-16T06:22:26.794Z,5.48
2018-03-16T06:24:54.254Z,5.46
2018-03-16T06:27:21.720Z,5.43
2018-03-16T06:29:49.223Z,5.38
2018-03-16T06:32:16.671Z,5.39
2018-03-16T06:34:44.211Z,5.30
2018-03-16T06:37:11.640Z,5.31
2018-03-16T06:39:39.113Z,5.36
2018-03-16T06:42:06.588Z,5.35
2018-03-16T06:44:34.170Z,5.33
2018-03-16T06:47:01.570Z,5.33
2018-03-16T06:49:29.125Z,5.34
2018-03-16T06:51:56.651Z,5.33
2018-03-16T06:54:24.158Z,5.33
2018-03-16T06:56:51.698Z,5.33
2018-03-16T06:59:19.166Z,5.30
2018-03-16T07:01:46.623Z,5.24
2018-03-16T07:04:14.172Z,5.26
2018-03-16T07:06:41.624Z,5.25
2018-03-16T07:09:09.986Z,5.24
2018-03-16T07:11:37.430Z,5.17
2018-03-16T07:14:04.950Z,5.17
2018-03-16T07:16:32.894Z,5.17
2018-03-16T07:19:01.290Z,5.18
2018-03-16T07:21:28.838Z,5.24
2018-03-16T07:23:56.280Z,5.30
2018-03-16T07:26:23.796Z,5.25
2018-03-16T07:28:51.488Z,5.32
2018-03-16T07:31:18.931Z,5.34
2018-03-16T07:33:46.467Z,5.33
2018-03-16T07:36:13.950Z,5.25
2018-03-16T07:38:41.422Z,5.27
2018-03-16T07:41:08.908Z,5.20
2018-03-16T07:43:41.368Z,5.15
2018-03-16T07:46:14.563Z,5.11
2018-03-16T07:48:42.102Z,5.13
2018-03-16T07:51:09.600Z,5.08
2018-03-16T07:53:37.081Z,4.95
2018-03-16T07:56:04.605Z,4.96
2018-03-16T07:58:32.078Z,4.94
2018-03-16T08:00:59.569Z,4.86
2018-03-16T08:03:27.086Z,4.82
2018-03-16T08:05:54.614Z,4.83
2018-03-16T08:08:22.106Z,4.83
2018-03-16T08:10:50.778Z,4.84
2018-03-16T08:13:18.395Z,4.88
2018-03-16T08:15:45.910Z,4.89
2018-03-16T08:18:13.376Z,4.85
2018-03-16T08:20:40.903Z,4.78
2018-03-16T08:23:08.373Z,4.78
2018-03-16T08:25:35.883Z,4.77
2018-03-16T08:28:03.436Z,4.76
2018-03-16T08:30:30.904Z,4.69
2018-03-16T08:32:58.412Z,4.68
2018-03-16T08:35:25.908Z,4.66
2018-03-16T08:37:53.411Z,4.67
2018-03-16T08:40:20.900Z,4.65
2018-03-16T08:42:48.336Z,4.55
2018-03-16T08:45:15.845Z,4.47
2018-03-16T08:47:43.417Z,4.38
2018-03-16T08:50:10.937Z,4.33
2018-03-16T08:52:38.456Z,4.28
2018-03-16T08:55:05.964Z,4.23
2018-03-16T08:57:33.433Z,4.14
2018-03-16T09:00:00.898Z,4.13
2018-03-16T09:02:28.364Z,4.10
2018-03-16T09:04:55.808Z,4.07
2018-03-16T09:07:23.277Z,4.03
2018-03-16T09:09:50.730Z,3.97
2018-03-16T09:12:18.199Z,3.91
2018-03-16T09:14:45.657Z,3.90
2018-03-16T09:17:13.102Z,3.90
2018-03-16T09:19:40.838Z,3.88
2018-03-16T09:22:08.314Z,3.86
2018-03-16T09:24:35.781Z,3.84
2018-03-16T09:27:03.326Z,3.81
2018-03-16T09:29:30.795Z,3.78
2018-03-16T09:31:58.289Z,3.74
2018-03-16T09:34:25.779Z,3.71
2018-03-16T09:36:53.214Z,3.73
2018-03-16T09:39:20.771Z,3.66
2018-03-16T09:41:48.252Z,3.67
2018-03-16T09:44:15.745Z,3.69
2018-03-16T09:46:43.205Z,3.67
2018-03-16T09:49:10.656Z,3.66
2018-03-16T09:51:38.162Z,3.58
2018-03-16T09:54:05.608Z,3.59
2018-03-16T09:56:33.084Z,3.53
2018-03-16T09:59:00.620Z,3.45
2018-03-16T10:01:29.946Z,3.39
2018-03-16T10:03:57.542Z,3.44
2018-03-16T10:06:25.127Z,3.42
2018-03-16T10:08:52.585Z,3.36
2018-03-16T10:11:20.090Z,3.35
2018-03-16T10:13:52.499Z,3.36
2018-03-16T10:16:19.999Z,3.38
2018-03-16T10:18:48.304Z,3.35
2018-03-16T10:21:15.761Z,3.31
2018-03-16T10:23:43.270Z,3.34
2018-03-16T10:26:10.741Z,3.30
2018-03-16T10:28:38.317Z,3.33
2018-03-16T10:31:06.597Z,3.36
2018-03-16T10:33:34.059Z,3.37
2018-03-16T10:36:01.501Z,3.38
2018-03-16T10:38:29.010Z,3.39
2018-03-16T10:40:56.483Z,3.34
2018-03-16T10:43:23.955Z,3.31
2018-03-16T10:45:51.437Z,3.28
2018-03-16T10:48:18.893Z,3.27
2018-03-16T10:50:46.624Z,3.24
2018-03-16T10:53:14.190Z,3.26
2018-03-16T10:55:41.531Z,3.20
2018-03-16T10:58:09.029Z,3.16
2018-03-16T11:00:41.949Z,3.18
2018-03-16T11:03:15.380Z,3.15
2018-03-16T11:05:48.632Z,3.05
2018-03-16T11:11:06.037Z,3.04
2018-03-16T11:13:33.517Z,3.05
2018-03-16T11:16:01.066Z,3.03
2018-03-16T11:18:28.598Z,3.05
2018-03-16T11:20:56.129Z,3.06
2018-03-16T11:23:23.556Z,3.04
2018-03-16T11:25:51.958Z,2.99
2018-03-16T11:28:19.439Z,2.92
2018-03-16T11:30:46.891Z,2.91
2018-03-16T11:33:14.416Z,2.89
2018-03-16T11:35:41.885Z,2.87
2018-03-16T11:38:09.349Z,2.82
2018-03-16T11:40:36.859Z,2.85
2018-03-16T11:43:04.349Z,2.85
2018-03-16T11:45:31.905Z,2.85
2018-03-16T11:47:59.395Z,2.89
2018-03-16T11:50:26.847Z,2.94
2018-03-16T11:52:54.318Z,2.94
2018-03-16T11:55:21.809Z,2.98
2018-03-16T11:57:49.273Z,3.01
2018-03-16T12:00:16.718Z,3.02
2018-03-16T12:02:44.211Z,2.97
2018-03-16T12:05:11.665Z,2.95
2018-03-16T12:07:39.163Z,2.96
2018-03-16T12:10:06.673Z,2.98
2018-03-16T12:12:34.150Z,2.96
2018-03-16T12:15:01.625Z,2.88
2018-03-16T12:17:30.219Z,2.84
2018-03-16T12:19:57.953Z,2.85
2018-03-16T12:22:25.440Z,2.81
2018-03-16T12:24:53.559Z,2.81
2018-03-16T12:27:21.127Z,2.84
2018-03-16T12:29:48.594Z,2.82
2018-03-16T12:32:16.055Z,2.78
2018-03-16T12:34:43.525Z,2.79
2018-03-16T12:37:10.979Z,2.81
2018-03-16T12:39:38.441Z,2.76
2018-03-16T12:42:05.873Z,2.76
2018-03-16T12:44:33.342Z,2.79
2018-03-16T12:47:00.868Z,2.73
2018-03-16T12:49:28.344Z,2.75
2018-03-16T12:51:55.812Z,2.81
2018-03-16T12:54:23.287Z,2.82
2018-03-16T12:56:50.744Z,2.82
2018-03-16T12:59:18.263Z,2.78
2018-03-16T13:01:45.752Z,2.73
2018-03-16T13:04:13.215Z,2.66
2018-03-16T13:06:40.694Z,2.68
2018-03-16T13:09:08.146Z,2.69
2018-03-16T13:11:35.638Z,2.73
2018-03-16T13:14:03.127Z,2.70
2018-03-16T13:16:30.587Z,2.66
2018-03-16T13:18:58.080Z,2.63
2018-03-16T13:21:25.580Z,2.60
2018-03-16T13:23:53.085Z,2.56
2018-03-16T13:26:20.611Z,2.51
2018-03-16T13:28:48.152Z,2.48
2018-03-16T13:31:15.613Z,2.50
2018-03-16T13:33:43.069Z,2.48
2018-03-16T13:36:10.511Z,2.49
2018-03-16T13:38:37.974Z,2.42
2018-03-16T13:41:05.436Z,2.37
2018-03-16T13:43:32.972Z,2.41
2018-03-16T13:46:00.418Z,2.48
2018-03-16T13:48:27.898Z,2.51
2018-03-16T13:50:55.419Z,2.51
2018-03-16T13:53:22.873Z,2.56
2018-03-16T13:55:50.330Z,2.58
2018-03-16T13:58:17.815Z,2.61
2018-03-16T14:00:45.269Z,2.55
2018-03-16T14:03:12.767Z,2.51
2018-03-16T14:05:40.241Z,2.42
2018-03-16T14:08:07.713Z,2.42
2018-03-16T14:10:35.382Z,2.43
2018-03-16T14:13:02.865Z,2.43
2018-03-16T14:15:30.324Z,2.35
2018-03-16T14:17:57.802Z,2.30
2018-03-16T14:20:25.504Z,2.25
2018-03-16T14:22:52.965Z,2.29
2018-03-16T14:25:20.469Z,2.36
2018-03-16T14:27:47.925Z,2.37
2018-03-16T14:30:15.424Z,2.35
2018-03-16T14:32:42.908Z,2.34
2018-03-16T14:35:10.402Z,2.32
2018-03-16T14:37:37.878Z,2.23
2018-03-16T14:40:05.518Z,2.20
2018-03-16T14:42:33.015Z,2.19
2018-03-16T14:45:01.336Z,2.18
2018-03-16T14:47:29.387Z,2.16
2018-03-16T14:49:56.924Z,2.17
2018-03-16T14:52:24.448Z,2.20
2018-03-16T14:54:52.041Z,2.22
2018-03-16T14:57:19.556Z,2.19
2018-03-16T14:59:47.076Z,2.14
2018-03-16T15:02:14.565Z,2.10
2018-03-16T15:04:42.106Z,2.14
2018-03-16T15:07:09.558Z,2.17
2018-03-16T15:09:37.040Z,2.15
2018-03-16T15:12:04.511Z,2.14
2018-03-16T15:14:32.017Z,2.17
2018-03-16T15:16:59.554Z,2.15
2018-03-16T15:19:27.018Z,2.11
2018-03-16T15:21:54.512Z,2.07
2018-03-16T15:24:22.018Z,2.02
2018-03-16T15:26:49.524Z,1.96
2018-03-16T15:29:17.048Z,1.97
2018-03-16T15:31:45.454Z,1.94
2018-03-16T15:34:12.952Z,1.98
2018-03-16T15:36:40.440Z,2.01
2018-03-16T15:39:07.946Z,2.07
2018-03-16T15:41:35.418Z,2.08
2018-03-16T15:44:02.880Z,2.06
2018-03-16T15:46:30.349Z,2.04
2018-03-16T15:48:57.818Z,2.04
2018-03-16T15:51:25.265Z,2.00
2018-03-16T15:53:52.764Z,2.05
2018-03-16T15:56:20.256Z,1.96
2018-03-16T15:58:47.732Z,1.86
2018-03-16T16:01:15.220Z,1.83
2018-03-16T16:03:42.665Z,1.82
2018-03-16T16:06:10.176Z,1.82
2018-03-16T16:08:37.710Z,1.86
2018-03-16T16:11:05.158Z,1.91
2018-03-16T16:13:32.657Z,1.96
2018-03-16T16:16:00.158Z,1.93
2018-03-16T16:18:27.940Z,1.79
2018-03-16T16:20:55.413Z,1.68
2018-03-16T16:23:22.922Z,1.58
2018-03-16T16:25:50.398Z,1.47
2018-03-16T16:28:17.852Z,1.48
2018-03-16T16:30:45.308Z,1.48
2018-03-16T16:33:13.562Z,1.56
2018-03-16T16:35:41.076Z,1.52
2018-03-16T16:38:09.484Z,1.49
2018-03-16T16:40:36.989Z,1.51
2018-03-16T16:43:04.600Z,1.47
2018-03-16T16:45:32.194Z,1.44
2018-03-16T16:47:59.667Z,1.40
2018-03-16T16:50:27.154Z,1.40
2018-03-16T16:52:54.610Z,1.38
2018-03-16T16:55:22.094Z,1.39
2018-03-16T16:57:49.568Z,1.34
2018-03-16T17:00:17.056Z,1.31
2018-03-16T17:02:45.460Z,1.33
2018-03-16T17:05:13.157Z,1.35
2018-03-16T17:07:40.951Z,1.32
2018-03-16T17:10:08.521Z,1.31
2018-03-16T17:12:36.052Z,1.26
2018-03-16T17:15:03.642Z,1.28
2018-03-16T17:17:32.052Z,1.28
2018-03-16T17:19:59.671Z,1.26
2018-03-16T17:22:27.186Z,1.21
2018-03-16T17:24:54.729Z,1.18
2018-03-16T17:27:24.138Z,1.15
2018-03-16T17:29:51.722Z,1.14
2018-03-16T17:32:24.242Z,1.14
2018-03-16T17:34:46.778Z,1.10
2018-03-16T17:37:14.240Z,1.08
2018-03-16T17:39:41.695Z,1.08
2018-03-16T17:42:09.152Z,1.13
2018-03-16T17:44:36.625Z,1.16
2018-03-16T17:47:04.068Z,1.12
2018-03-16T17:49:31.622Z,1.12
2018-03-16T17:51:59.148Z,1.12
2018-03-16T17:54:27.381Z,1.15
2018-03-16T17:56:54.867Z,1.14
2018-03-16T17:59:22.347Z,1.16
2018-03-16T18:01:49.871Z,1.15
2018-03-16T18:04:17.310Z,1.15
2018-03-16T18:06:44.794Z,1.15
2018-03-16T18:09:12.257Z,1.21
2018-03-16T18:11:39.717Z,1.21
2018-03-16T18:14:07.240Z,1.23
2018-03-16T18:16:34.729Z,1.22
2018-03-16T18:19:02.217Z,1.22
2018-03-16T18:21:29.676Z,1.13
2018-03-16T18:23:57.174Z,1.15
2018-03-16T18:26:24.656Z,1.14
2018-03-16T18:28:52.381Z,1.14
2018-03-16T18:31:19.893Z,1.12
2018-03-16T18:33:47.371Z,1.12
2018-03-16T18:36:14.926Z,1.11
2018-03-16T18:38:42.456Z,1.07
2018-03-16T18:41:09.949Z,1.06
2018-03-16T18:43:37.433Z,1.06
2018-03-16T18:46:05.058Z,1.10
2018-03-16T18:48:32.537Z,1.00
2018-03-16T18:51:00.129Z,1.03
2018-03-16T18:53:27.673Z,1.08
2018-03-16T18:55:55.144Z,1.09
2018-03-16T18:58:22.603Z,1.07
2018-03-16T19:00:50.064Z,1.11
2018-03-16T19:03:17.615Z,1.14
2018-03-16T19:05:45.131Z,1.14
2018-03-16T19:08:12.617Z,1.05
2018-03-16T19:10:40.078Z,1.05
2018-03-16T19:13:07.525Z,1.03
2018-03-16T19:15:35.020Z,0.98
2018-03-16T19:18:02.460Z,1.01
2018-03-16T19:20:29.992Z,0.99
2018-03-16T19:22:57.553Z,0.90
2018-03-16T19:25:25.072Z,0.80
2018-03-16T19:27:52.554Z,0.84
2018-03-16T19:30:20.061Z,0.82
2018-03-16T19:32:47.587Z,0.82
2018-03-16T19:35:15.933Z,0.85
2018-03-16T19:37:43.416Z,0.87
2018-03-16T19:40:10.918Z,0.88
2018-03-16T19:42:38.474Z,0.93
2018-03-16T19:45:06.045Z,0.94
2018-03-16T19:47:33.646Z,0.92
2018-03-16T19:50:01.177Z,0.85
2018-03-16T19:52:28.691Z,0.78
2018-03-16T19:55:01.125Z,0.76
2018-03-16T19:57:28.627Z,0.75
2018-03-16T19:59:56.953Z,0.68
2018-03-16T20:02:24.467Z,0.67
2018-03-16T20:04:51.955Z,0.65
2018-03-16T20:07:19.492Z,0.66
2018-03-16T20:09:47.019Z,0.63
2018-03-16T20:12:14.496Z,0.64
2018-03-16T20:14:42.007Z,0.59
2018-03-16T20:17:09.908Z,0.62
2018-03-16T20:19:37.330Z,0.58
2018-03-16T20:22:04.842Z,0.55
2018-03-16T20:24:32.416Z,0.53
2018-03-16T20:27:00.018Z,0.47
2018-03-16T20:29:28.951Z,0.42
2018-03-16T20:31:59.164Z,0.42
2018-03-16T20:34:26.741Z,0.41
2018-03-16T20:36:54.294Z,0.45
2018-03-16T20:39:21.828Z,0.42
2018-03-16T20:41:49.362Z,0.41
2018-03-16T20:44:16.908Z,0.42
2018-03-16T20:46:44.605Z,0.41
2018-03-16T20:49:12.127Z,0.43
2018-03-16T20:51:39.663Z,0.41
2018-03-16T20:54:07.162Z,0.41
2018-03-16T20:56:34.706Z,0.45
2018-03-16T20:59:02.303Z,0.48
2018-03-16T21:01:29.762Z,0.48
2018-03-16T21:03:57.298Z,0.48
2018-03-16T21:06:24.872Z,0.46
2018-03-16T21:08:52.402Z,0.42
2018-03-16T21:11:19.966Z,0.40
2018-03-16T21:13:47.435Z,0.37
2018-03-16T21:16:14.973Z,0.33
2018-03-16T21:18:42.452Z,0.29
2018-03-16T21:21:10.689Z,0.30
2018-03-16T21:23:38.187Z,0.30
2018-03-16T21:26:05.669Z,0.28
2018-03-16T21:28:33.186Z,0.31
2018-03-16T21:31:00.693Z,0.26
2018-03-16T21:33:28.208Z,0.22
2018-03-16T21:35:55.693Z,0.17
2018-03-16T21:38:23.158Z,0.18
2018-03-16T21:40:50.674Z,0.24
2018-03-16T21:43:18.173Z,0.30
2018-03-16T21:45:45.701Z,0.27
2018-03-16T21:48:13.205Z,0.29
2018-03-16T21:50:40.693Z,0.31
2018-03-16T21:53:08.130Z,0.28
2018-03-16T21:55:35.781Z,0.29
2018-03-16T21:58:03.213Z,0.28
2018-03-16T22:00:30.749Z,0.26
2018-03-16T22:02:58.351Z,0.21
2018-03-16T22:05:25.787Z,0.21
2018-03-16T22:07:53.292Z,0.18
2018-03-16T22:10:20.829Z,0.20
2018-03-16T22:12:48.286Z,0.16
2018-03-16T22:15:15.865Z,0.13
2018-03-16T22:17:43.299Z,0.06
2018-03-16T22:20:10.778Z,-0.05
2018-03-16T22:22:38.239Z,-0.10
2018-03-16T22:25:05.737Z,-0.10
2018-03-16T22:27:33.557Z,-0.10
2018-03-16T22:30:00.994Z,-0.03
2018-03-16T22:32:28.828Z,0.30
2018-03-16T22:34:56.290Z,0.43
2018-03-16T22:37:23.948Z,0.39
2018-03-16T22:39:51.454Z,0.52
2018-03-16T22:42:18.995Z,0.46
2018-03-16T22:44:46.462Z,0.38
2018-03-16T22:47:13.909Z,0.26
2018-03-16T22:49:41.428Z,0.22
2018-03-16T22:52:08.886Z,0.25
2018-03-16T22:54:36.355Z,0.29
2018-03-16T22:57:03.782Z,0.29
2018-03-16T22:59:31.267Z,0.13
2018-03-16T23:01:58.748Z,0.13
2018-03-16T23:04:26.229Z,0.16
2018-03-16T23:06:53.658Z,0.20
2018-03-16T23:09:21.184Z,0.09
2018-03-16T23:11:48.632Z,0.00
2018-03-16T23:14:16.144Z,-0.06
2018-03-16T23:16:43.620Z,-0.21
2018-03-16T23:19:11.085Z,-0.20
2018-03-16T23:21:38.620Z,-0.21
2018-03-16T23:24:06.190Z,-0.22
2018-03-16T23:26:33.680Z,-0.17
2018-03-16T23:29:01.161Z,-0.14
2018-03-16T23:31:28.640Z,-0.16
2018-03-16T23:33:56.148Z,-0.13
2018-03-16T23:36:23.619Z,-0.14
2018-03-16T23:38:51.106Z,-0.14
2018-03-16T23:41:18.562Z,-0.18
2018-03-16T23:43:46.030Z,-0.25
2018-03-16T23:46:13.560Z,-0.24
2018-03-16T23:48:41.022Z,-0.20
2018-03-16T23:51:08.485Z,-0.29
2018-03-16T23:53:35.963Z,-0.32
2018-03-16T23:56:03.436Z,-0.36
2018-03-16T23:58:30.892Z,-0.36
